Time;durP1;ratioP1;P1;durP2;ratioP2;P2;SDS_P1;SDS_P2;PMS_P1;PMS_P2;Temp;Humidity;BMP_temperature;BMP_pressure;BME280_temperature;BME280_humidity;BME280_pressure;Samples;Min_cycle;Max_cycle;Signal;HPM_P1;HPM_P2
2022/08/06 06:20:19;;;;;;;9.98;9.07;;;20.70;99.90;;;;;;4431584;31;20667;-53
2022/08/06 06:23:02;;;;;;;9.30;8.60;;;20.80;99.90;;;;;;4236619;32;3236963;-53
2022/08/06 06:26:04;;;;;;;10.33;9.37;;;20.50;99.90;;;;;;4207356;33;20323;-54
2022/08/06 06:29:13;;;;;;;10.07;9.17;;;20.30;99.90;;;;;;4179446;33;20689;-52
2022/08/06 06:32:11;;;;;;;10.63;9.63;;;20.10;99.90;;;;;;4177100;33;20233;-53
2022/08/06 06:38:22;;;;;;;9.50;8.57;;;19.90;99.90;;;;;;5107941;27;20594;-55
2022/08/06 06:40:56;;;;;;;11.10;9.70;;;19.80;99.90;;;;;;5100894;28;20200;-55
2022/08/06 06:43:38;;;;;;;11.13;10.03;;;19.90;99.90;;;;;;5083234;28;20220;-55
2022/08/06 06:46:11;;;;;;;10.53;9.57;;;19.90;99.90;;;;;;5068036;28;20251;-55
2022/08/06 06:48:44;;;;;;;10.17;9.37;;;19.90;99.90;;;;;;5059047;28;20897;-54
2022/08/06 06:51:17;;;;;;;12.77;9.07;;;20.10;99.90;;;;;;5068572;28;20735;-55
2022/08/06 06:53:48;;;;;;;10.97;9.57;;;20.10;99.90;;;;;;5068383;28;20220;-55
2022/08/06 06:56:20;;;;;;;10.13;9.17;;;20.20;99.90;;;;;;5060183;28;20263;-55
2022/08/06 06:58:51;;;;;;;10.07;9.10;;;20.30;99.90;;;;;;5067385;28;20609;-54
2022/08/06 07:01:19;;;;;;;9.70;8.90;;;20.30;99.90;;;;;;5067327;28;20201;-55
2022/08/06 07:03:48;;;;;;;10.43;9.53;;;20.30;99.90;;;;;;5067550;28;20270;-58
2022/08/06 07:06:16;;;;;;;12.00;10.87;;;20.30;99.90;;;;;;5059930;28;20193;-55
2022/08/06 07:08:50;;;;;;;10.43;9.43;;;20.20;99.90;;;;;;5068131;28;20271;-55
2022/08/06 07:11:20;;;;;;;9.97;8.73;;;20.30;99.90;;;;;;5059071;28;20202;-55
2022/08/06 07:13:48;;;;;;;10.37;9.47;;;20.30;99.90;;;;;;5064349;28;20282;-54
2022/08/06 07:16:18;;;;;;;11.40;8.60;;;20.40;99.90;;;;;;5062249;28;20209;-55
2022/08/06 07:18:46;;;;;;;9.87;8.93;;;20.50;99.90;;;;;;5067123;28;20201;-55
2022/08/06 07:21:16;;;;;;;10.90;9.53;;;20.40;99.90;;;;;;5067310;28;20418;-56
2022/08/06 07:23:46;;;;;;;10.43;9.30;;;20.40;99.90;;;;;;5065961;28;20282;-55
2022/08/06 07:26:17;;;;;;;7.83;7.13;;;20.50;99.90;;;;;;5068791;28;20193;-55
2022/08/06 07:28:46;;;;;;;9.20;8.37;;;20.60;99.90;;;;;;5058915;28;20209;-53
2022/08/06 07:31:14;;;;;;;8.27;7.43;;;20.60;99.90;;;;;;5066081;28;20197;-53
2022/08/06 07:33:45;;;;;;;8.37;7.53;;;20.50;99.90;;;;;;5064936;28;20702;-53
2022/08/06 07:36:16;;;;;;;6.60;6.10;;;20.50;99.90;;;;;;5066501;28;20225;-54
2022/08/06 07:38:45;;;;;;;7.50;6.97;;;20.80;99.90;;;;;;5067435;28;20211;-53
2022/08/06 07:41:16;;;;;;;7.87;6.07;;;21.10;99.90;;;;;;5067269;28;20205;-54
2022/08/06 07:43:52;;;;;;;7.73;7.00;;;21.40;99.90;;;;;;5066693;28;20225;-53
2022/08/06 07:46:25;;;;;;;6.43;5.93;;;21.30;99.90;;;;;;5057132;28;20283;-53
2022/08/06 07:48:55;;;;;;;5.60;5.20;;;21.40;99.90;;;;;;5049836;28;20201;-53
2022/08/06 07:51:26;;;;;;;5.97;5.60;;;21.30;99.90;;;;;;5050138;28;20228;-54
2022/08/06 07:53:54;;;;;;;5.93;5.43;;;21.30;99.90;;;;;;5051339;28;20222;-54
2022/08/06 07:56:23;;;;;;;4.87;4.47;;;21.40;99.90;;;;;;5043718;28;20218;-54
2022/08/06 07:58:51;;;;;;;5.70;5.03;;;21.50;99.90;;;;;;5053921;28;20571;-54
2022/08/06 08:01:19;;;;;;;6.13;5.57;;;21.40;99.90;;;;;;5056111;28;20194;-54
2022/08/06 08:06:32;;;;;;;5.50;5.10;;;21.00;99.90;;;;;;5049730;28;20208;-54
2022/08/06 08:09:02;;;;;;;5.87;5.47;;;21.10;99.90;;;;;;5053317;28;20626;-53
2022/08/06 08:11:32;;;;;;;6.20;5.17;;;21.20;99.90;;;;;;5053074;28;20281;-53
2022/08/06 08:14:01;;;;;;;6.27;5.67;;;21.10;99.90;;;;;;5049331;28;20228;-54
2022/08/06 08:16:29;;;;;;;5.53;5.03;;;20.90;99.90;;;;;;5052059;28;20597;-53
2022/08/06 08:18:57;;;;;;;9.90;4.70;;;21.10;99.90;;;;;;5053718;28;20209;-54
2022/08/06 08:21:25;;;;;;;5.63;5.03;;;21.10;99.90;;;;;;5052699;28;20667;-53
2022/08/06 08:23:53;;;;;;;5.83;5.23;;;21.10;99.90;;;;;;5051803;28;20320;-53
2022/08/06 08:26:20;;;;;;;4.40;4.00;;;20.90;99.90;;;;;;5046307;28;20567;-53
2022/08/06 08:28:49;;;;;;;4.57;4.27;;;20.60;99.90;;;;;;5053320;28;20201;-54
2022/08/06 08:31:16;;;;;;;4.80;4.40;;;20.40;99.90;;;;;;5052266;28;20194;-53
2022/08/06 08:33:43;;;;;;;5.43;4.10;;;20.40;99.90;;;;;;5051225;28;20229;-53
2022/08/06 08:36:10;;;;;;;4.63;4.23;;;20.40;99.90;;;;;;5051136;28;20259;-54
2022/08/06 08:38:37;;;;;;;4.50;4.20;;;20.30;99.90;;;;;;5051445;28;20221;-53
2022/08/06 08:41:08;;;;;;;4.77;4.37;;;20.20;99.90;;;;;;5049779;28;20260;-53
2022/08/06 08:43:40;;;;;;;4.00;3.80;;;20.30;99.90;;;;;;5065641;28;20272;-53
2022/08/06 08:46:10;;;;;;;4.77;4.20;;;20.30;99.90;;;;;;5071111;28;20225;-53
2022/08/06 08:48:38;;;;;;;7.20;4.33;;;20.20;99.90;;;;;;5059576;28;20717;-54
2022/08/06 08:51:06;;;;;;;4.13;3.93;;;20.40;99.90;;;;;;5058499;28;20224;-53
2022/08/06 08:53:38;;;;;;;3.60;3.40;;;20.50;99.90;;;;;;5051965;28;20620;-53
2022/08/06 08:56:07;;;;;;;4.07;3.77;;;20.60;99.90;;;;;;5048563;28;20198;-54
2022/08/06 08:58:36;;;;;;;4.40;3.27;;;20.70;99.90;;;;;;5059376;28;20225;-54
2022/08/06 09:01:08;;;;;;;5.00;4.60;;;20.60;99.90;;;;;;5068154;28;20288;-53
2022/08/06 09:03:40;;;;;;;7.67;4.83;;;20.50;99.90;;;;;;5051922;28;20221;-53
2022/08/06 09:06:08;;;;;;;4.10;3.90;;;20.40;99.90;;;;;;5052202;28;20198;-53
2022/08/06 09:08:36;;;;;;;4.80;4.40;;;20.50;99.90;;;;;;5070826;28;20193;-53
2022/08/06 09:11:05;;;;;;;4.37;3.77;;;20.30;99.90;;;;;;5071106;28;20571;-53
2022/08/06 09:13:32;;;;;;;4.10;3.70;;;20.20;99.90;;;;;;5070812;28;20271;-53
2022/08/06 09:15:59;;;;;;;5.57;4.90;;;20.10;99.90;;;;;;5071626;28;20197;-53
2022/08/06 09:18:27;;;;;;;4.57;4.37;;;20.10;99.90;;;;;;5054322;28;20222;-53
2022/08/06 09:20:56;;;;;;;3.67;3.37;;;20.20;99.90;;;;;;5051828;28;20617;-53
2022/08/06 09:23:23;;;;;;;5.07;4.63;;;20.20;99.90;;;;;;5051237;28;20706;-52
2022/08/06 09:25:51;;;;;;;4.20;3.80;;;20.30;99.90;;;;;;5051158;28;20202;-52
2022/08/06 09:28:31;;;;;;;3.50;3.40;;;20.10;99.90;;;;;;5052558;28;20197;-53
2022/08/06 09:30:59;;;;;;;5.13;4.73;;;20.10;99.90;;;;;;5050101;28;20850;-53
2022/08/06 09:33:27;;;;;;;4.63;4.23;;;20.10;99.90;;;;;;5048110;28;20218;-52
2022/08/06 09:36:03;;;;;;;5.13;4.83;;;20.10;99.90;;;;;;5054065;28;20925;-53
2022/08/06 09:38:31;;;;;;;4.60;4.30;;;20.00;99.90;;;;;;5051584;28;20209;-53
2022/08/06 09:41:06;;;;;;;4.70;4.40;;;20.10;99.90;;;;;;5050565;28;20197;-53
2022/08/06 09:43:33;;;;;;;4.90;4.60;;;20.20;99.90;;;;;;5051615;28;20235;-52
2022/08/06 09:46:00;;;;;;;4.23;4.03;;;20.20;99.90;;;;;;5050897;28;20217;-53
2022/08/06 09:48:27;;;;;;;4.43;4.13;;;20.10;99.90;;;;;;5051270;28;20659;-53
2022/08/06 09:50:54;;;;;;;4.27;3.97;;;20.30;99.90;;;;;;5047161;28;20633;-53
2022/08/06 09:53:23;;;;;;;4.33;3.77;;;20.30;99.90;;;;;;5037430;28;20245;-53
2022/08/06 09:55:50;;;;;;;4.30;4.00;;;20.10;99.90;;;;;;5047082;28;20655;-53
2022/08/06 09:58:28;;;;;;;4.50;4.30;;;19.90;99.90;;;;;;5051726;28;20217;-53
2022/08/06 10:00:56;;;;;;;3.90;3.73;;;20.10;99.90;;;;;;5052061;28;20229;-54
2022/08/06 10:03:23;;;;;;;4.97;4.50;;;19.90;99.90;;;;;;5051913;28;20221;-54
2022/08/06 10:06:04;;;;;;;4.87;4.50;;;19.80;99.90;;;;;;5052061;28;20209;-53
2022/08/06 10:08:32;;;;;;;4.10;3.93;;;19.90;99.90;;;;;;5051856;28;20197;-55
2022/08/06 10:11:02;;;;;;;4.47;4.17;;;19.90;99.90;;;;;;5051902;28;20201;-53
2022/08/06 10:13:30;;;;;;;4.63;4.33;;;20.00;99.90;;;;;;5051462;28;20222;-53
2022/08/06 10:15:59;;;;;;;3.60;3.40;;;19.90;99.90;;;;;;5050224;28;20677;-53
2022/08/06 10:18:39;;;;;;;4.10;4.00;;;20.00;99.90;;;;;;5050390;28;20221;-53
2022/08/06 10:21:07;;;;;;;4.50;4.30;;;19.90;99.90;;;;;;5044154;28;20198;-53
2022/08/06 10:23:38;;;;;;;4.17;3.97;;;19.80;99.90;;;;;;5051610;28;20646;-53
2022/08/06 10:26:07;;;;;;;5.07;4.70;;;19.80;99.90;;;;;;5051969;28;20213;-53
2022/08/06 10:28:36;;;;;;;4.90;4.60;;;19.90;99.90;;;;;;5051807;28;20256;-53
2022/08/06 10:31:05;;;;;;;3.80;3.63;;;19.90;99.90;;;;;;5051485;28;20209;-53
2022/08/06 10:33:37;;;;;;;4.80;4.50;;;19.90;99.90;;;;;;5051208;28;20568;-53
2022/08/06 10:36:09;;;;;;;4.20;4.07;;;19.90;99.90;;;;;;5049947;28;20596;-53
2022/08/06 10:38:41;;;;;;;3.97;3.77;;;19.90;99.90;;;;;;5048104;28;20271;-53
2022/08/06 10:41:11;;;;;;;4.10;3.90;;;19.80;99.90;;;;;;5051520;28;20244;-53
2022/08/06 10:43:40;;;;;;;4.00;3.83;;;19.80;99.90;;;;;;5051274;28;20844;-52
2022/08/06 10:46:09;;;;;;;4.13;3.93;;;19.80;99.90;;;;;;5051072;28;20247;-53
2022/08/06 10:48:37;;;;;;;4.87;3.90;;;19.70;99.90;;;;;;5050173;28;20547;-53
2022/08/06 10:51:06;;;;;;;4.00;3.80;;;19.70;99.90;;;;;;5051615;28;20229;-53
2022/08/06 10:53:34;;;;;;;3.37;3.27;;;19.70;99.90;;;;;;5051051;28;20606;-53
2022/08/06 10:56:04;;;;;;;4.40;4.20;;;19.70;99.90;;;;;;5051257;28;20206;-53
2022/08/06 10:58:33;;;;;;;3.57;3.40;;;19.80;99.90;;;;;;5042596;28;20217;-53
2022/08/06 11:01:02;;;;;;;5.00;4.67;;;19.70;99.90;;;;;;5051268;28;20591;-53
2022/08/06 11:03:45;;;;;;;4.67;4.20;;;19.70;99.90;;;;;;5051225;28;20233;-52
2022/08/06 11:06:37;;;;;;;4.40;4.20;;;19.70;99.90;;;;;;5051033;28;20667;-52
2022/08/06 11:09:19;;;;;;;3.60;3.50;;;19.90;99.90;;;;;;5051377;28;20206;-52
2022/08/06 11:12:03;;;;;;;4.47;4.33;;;19.80;99.90;;;;;;5051238;28;20202;-52
2022/08/06 11:14:31;;;;;;;4.57;4.37;;;19.90;99.90;;;;;;5050975;28;20240;-52
2022/08/06 11:16:59;;;;;;;4.40;4.20;;;19.90;99.90;;;;;;5047231;28;20252;-52
2022/08/06 11:19:45;;;;;;;4.80;4.57;;;20.00;99.90;;;;;;5046000;28;20662;-52
2022/08/06 11:22:33;;;;;;;4.27;4.03;;;20.20;99.90;;;;;;5050994;28;20205;-52
2022/08/06 11:25:02;;;;;;;3.97;3.77;;;20.10;99.90;;;;;;5054654;28;20222;-52
2022/08/06 11:27:50;;;;;;;4.23;4.13;;;20.20;99.90;;;;;;5054637;28;20233;-52
2022/08/06 11:30:18;;;;;;;3.73;3.57;;;20.10;99.90;;;;;;5054413;28;20687;-52
2022/08/06 11:32:47;;;;;;;4.37;4.27;;;20.20;99.90;;;;;;5054663;28;20208;-52
2022/08/06 11:35:40;;;;;;;3.63;3.17;;;20.30;99.90;;;;;;5054014;28;20691;-52
2022/08/06 11:38:09;;;;;;;3.20;3.10;;;20.50;99.90;;;;;;5048429;28;20261;-52
2022/08/06 11:40:55;;;;;;;3.70;3.60;;;20.60;99.90;;;;;;5050757;28;20194;-52
2022/08/06 11:43:46;;;;;;;4.00;3.70;;;20.70;99.90;;;;;;5054265;28;20586;-52
2022/08/06 11:46:21;;;;;;;4.40;4.20;;;20.80;99.90;;;;;;5053799;28;20241;-52
2022/08/06 11:49:18;;;;;;;4.20;4.07;;;20.80;99.90;;;;;;5054556;28;20206;-52
2022/08/06 11:51:46;;;;;;;4.20;4.00;;;20.80;99.90;;;;;;5054241;28;20206;-52
2022/08/06 11:54:16;;;;;;;3.10;3.00;;;20.80;99.90;;;;;;5053703;28;20295;-52
2022/08/06 11:57:33;;;;;;;3.30;3.20;;;20.90;99.90;;;;;;5053968;28;20780;-52
2022/08/06 12:00:13;;;;;;;3.30;3.20;;;21.00;99.90;;;;;;5053619;28;20198;-52
2022/08/06 12:02:50;;;;;;;2.67;2.57;;;21.20;99.90;;;;;;5053770;28;20295;-52
2022/08/06 12:05:37;;;;;;;3.67;3.37;;;21.50;99.90;;;;;;5053662;28;20325;-52
2022/08/06 12:08:26;;;;;;;3.87;3.77;;;21.50;99.90;;;;;;5053789;28;20281;-52
2022/08/06 12:11:36;;;;;;;4.67;4.47;;;21.40;99.90;;;;;;5049825;28;20251;-55
2022/08/06 12:14:04;;;;;;;3.83;3.63;;;21.10;99.90;;;;;;5056316;28;20240;-52
2022/08/06 12:16:35;;;;;;;4.63;4.22;;;21.20;99.90;;;;;;5057441;28;20443;-52
2022/08/06 12:19:04;;;;;;;3.60;3.50;;;21.10;99.90;;;;;;5055587;28;20221;-52
2022/08/06 12:21:32;;;;;;;3.47;3.37;;;21.10;99.90;;;;;;5057328;28;20686;-52
2022/08/06 12:23:59;;;;;;;4.27;4.07;;;21.10;99.90;;;;;;5058683;28;20217;-52
2022/08/06 12:26:33;;;;;;;4.53;4.10;;;21.00;99.90;;;;;;5044144;28;20288;-52
2022/08/06 12:29:04;;;;;;;3.83;3.63;;;20.90;99.90;;;;;;5052797;28;20256;-52
2022/08/06 12:31:35;;;;;;;4.40;4.20;;;20.80;99.90;;;;;;5044475;28;20299;-54
2022/08/06 12:34:03;;;;;;;5.00;4.80;;;20.80;99.90;;;;;;5051253;28;20244;-52
2022/08/06 12:36:32;;;;;;;6.27;5.67;;;20.70;99.90;;;;;;5052895;28;20691;-52
2022/08/06 12:39:01;;;;;;;6.17;5.77;;;20.60;99.90;;;;;;5048973;28;20230;-52
2022/08/06 12:41:41;;;;;;;6.70;6.33;;;20.40;99.90;;;;;;5047944;28;20201;-51
2022/08/06 12:44:13;;;;;;;7.17;6.57;;;20.50;99.90;;;;;;5037858;28;20225;-52
2022/08/06 12:46:42;;;;;;;6.23;5.87;;;20.40;99.90;;;;;;5049775;28;20198;-53
2022/08/06 12:49:09;;;;;;;6.90;6.50;;;20.50;99.90;;;;;;5052788;28;20663;-52
2022/08/06 12:51:36;;;;;;;6.47;6.07;;;20.60;99.90;;;;;;5036529;28;20265;-52
2022/08/06 12:54:07;;;;;;;6.67;6.20;;;20.60;99.90;;;;;;5048387;28;20598;-52
2022/08/06 12:56:37;;;;;;;6.53;5.93;;;20.80;99.90;;;;;;5051648;28;20206;-53
2022/08/06 12:59:07;;;;;;;7.17;6.67;;;20.70;99.90;;;;;;5044488;28;20271;-53
2022/08/06 13:01:36;;;;;;;6.77;6.33;;;20.90;99.90;;;;;;5053005;28;20267;-52
2022/08/06 13:04:09;;;;;;;6.77;6.23;;;20.90;99.90;;;;;;5050337;28;20698;-52
2022/08/06 13:06:39;;;;;;;5.63;5.20;;;20.90;99.90;;;;;;5045022;28;20212;-52
2022/08/06 13:09:06;;;;;;;8.20;6.70;;;21.00;99.90;;;;;;5052251;28;20197;-52
2022/08/06 13:11:35;;;;;;;6.97;6.37;;;21.10;99.90;;;;;;5035417;28;20663;-52
2022/08/06 13:14:10;;;;;;;6.90;6.30;;;21.10;99.90;;;;;;5035257;28;20226;-52
2022/08/06 13:16:43;;;;;;;7.93;7.43;;;21.30;99.90;;;;;;5048246;28;20281;-52
2022/08/06 13:19:14;;;;;;;8.37;7.53;;;21.30;99.90;;;;;;5045186;28;20213;-53
2022/08/06 13:21:42;;;;;;;8.47;7.63;;;21.40;99.90;;;;;;5052207;28;20193;-53
2022/08/06 13:24:10;;;;;;;8.37;7.57;;;21.50;99.90;;;;;;5031837;28;20226;-53
2022/08/06 13:26:50;;;;;;;7.70;7.20;;;21.60;99.90;;;;;;5040956;28;20213;-53
2022/08/06 13:29:19;;;;;;;7.93;7.37;;;21.70;99.90;;;;;;5050327;28;20255;-52
2022/08/06 13:31:47;;;;;;;7.57;7.03;;;21.80;99.90;;;;;;5051864;28;20281;-53
2022/08/06 13:34:17;;;;;;;6.93;6.43;;;21.90;99.90;;;;;;5047414;28;20218;-52
2022/08/06 13:36:53;;;;;;;9.17;7.93;;;22.20;99.90;;;;;;5048629;28;20675;-53
2022/08/06 13:39:22;;;;;;;8.97;7.93;;;22.30;99.90;;;;;;5051519;28;20217;-53
2022/08/06 13:42:01;;;;;;;8.13;7.43;;;22.30;99.90;;;;;;5052028;28;20260;-53
2022/08/06 13:44:33;;;;;;;7.40;6.83;;;22.10;99.90;;;;;;5048613;28;20695;-53
2022/08/06 13:47:01;;;;;;;9.00;8.33;;;22.10;99.90;;;;;;5048004;28;20206;-53
2022/08/06 13:49:30;;;;;;;8.50;7.80;;;22.20;99.90;;;;;;5040617;28;20281;-52
2022/08/06 13:51:57;;;;;;;8.63;7.90;;;22.20;99.90;;;;;;5063111;28;20254;-53
2022/08/06 13:54:25;;;;;;;10.13;9.33;;;22.10;99.90;;;;;;5055002;28;20249;-52
2022/08/06 13:56:52;;;;;;;9.43;8.60;;;22.20;99.90;;;;;;5046010;28;20288;-52
2022/08/06 13:59:21;;;;;;;9.73;9.00;;;22.00;99.90;;;;;;5051602;28;20224;-52
2022/08/06 14:01:49;;;;;;;10.33;9.53;;;22.10;99.90;;;;;;5048639;28;20215;-52
2022/08/06 14:04:19;;;;;;;10.83;10.03;;;21.90;99.90;;;;;;5046865;28;20222;-52
2022/08/06 14:06:49;;;;;;;10.83;10.00;;;21.70;99.90;;;;;;5047265;28;20203;-52
2022/08/06 14:09:17;;;;;;;11.03;9.93;;;21.60;99.90;;;;;;5052165;28;20197;-52
2022/08/06 14:11:45;;;;;;;10.03;9.20;;;21.50;99.90;;;;;;5049073;28;20258;-52
2022/08/06 14:14:12;;;;;;;9.93;9.13;;;21.50;99.90;;;;;;5058935;28;20224;-53
2022/08/06 14:16:39;;;;;;;8.73;8.13;;;21.40;99.90;;;;;;5066316;28;20277;-53
2022/08/06 14:19:06;;;;;;;7.73;7.23;;;21.50;99.90;;;;;;5049829;28;20213;-52
2022/08/06 14:21:33;;;;;;;9.10;8.40;;;21.60;99.90;;;;;;5050590;28;20260;-52
2022/08/06 14:24:05;;;;;;;8.30;7.70;;;21.70;99.90;;;;;;5049142;28;20257;-53
2022/08/06 14:26:32;;;;;;;9.47;8.70;;;21.80;99.90;;;;;;5048277;28;20198;-53
2022/08/06 14:29:01;;;;;;;7.93;7.40;;;21.70;99.90;;;;;;5050328;28;20274;-53
2022/08/06 14:31:28;;;;;;;9.90;9.20;;;21.70;99.90;;;;;;5049178;28;20190;-53
2022/08/06 14:33:55;;;;;;;9.10;8.40;;;21.70;99.90;;;;;;5051980;28;20236;-53
2022/08/06 14:36:22;;;;;;;8.97;8.30;;;21.80;99.90;;;;;;5049976;28;20608;-53
2022/08/06 14:38:49;;;;;;;10.13;9.43;;;21.90;99.90;;;;;;5050100;28;20239;-53
2022/08/06 14:46:47;;;;;;;7.93;7.33;;;21.90;99.90;;;;;;5047842;28;20771;-52
2022/08/06 14:49:14;;;;;;;8.57;8.07;;;21.90;99.90;;;;;;5049994;28;20194;-53
2022/08/06 14:51:41;;;;;;;8.37;7.73;;;21.90;99.90;;;;;;5052976;28;20667;-53
2022/08/06 14:54:08;;;;;;;5.80;5.40;;;21.90;99.90;;;;;;5050764;28;20296;-52
2022/08/06 14:56:37;;;;;;;6.80;6.40;;;21.90;99.90;;;;;;5049571;28;20297;-54
2022/08/06 14:59:04;;;;;;;6.37;6.13;;;21.90;99.90;;;;;;5071915;28;20213;-53
2022/08/06 15:01:31;;;;;;;5.50;5.30;;;21.90;99.90;;;;;;5072825;28;20199;-53
2022/08/06 15:03:58;;;;;;;6.00;5.70;;;21.80;99.90;;;;;;5072441;28;20778;-52
2022/08/06 15:06:25;;;;;;;5.83;5.53;;;21.80;99.90;;;;;;5066071;28;20277;-53
2022/08/06 15:08:52;;;;;;;8.30;7.70;;;21.90;99.90;;;;;;5053288;28;20271;-53
2022/08/06 15:11:19;;;;;;;9.93;9.03;;;22.00;99.90;;;;;;5053843;28;20202;-53
2022/08/06 15:13:48;;;;;;;10.03;9.27;;;22.00;99.90;;;;;;5053813;28;20260;-53
2022/08/06 15:16:15;;;;;;;10.20;9.50;;;22.10;99.90;;;;;;5053841;28;20202;-52
2022/08/06 15:18:43;;;;;;;9.13;8.43;;;22.00;99.90;;;;;;5053463;28;20272;-52
2022/08/06 15:21:10;;;;;;;10.50;9.63;;;22.00;99.90;;;;;;5058839;28;20212;-53
2022/08/06 15:23:38;;;;;;;11.00;10.10;;;22.00;99.90;;;;;;5055010;28;20222;-53
2022/08/06 15:26:05;;;;;;;10.10;9.13;;;21.90;99.90;;;;;;5070606;28;20654;-53
2022/08/06 15:28:32;;;;;;;12.30;11.37;;;22.00;99.90;;;;;;5060240;28;20194;-53
2022/08/06 15:31:01;;;;;;;12.00;11.10;;;21.80;99.90;;;;;;5054365;28;20208;-53
2022/08/06 15:33:28;;;;;;;11.87;10.87;;;21.80;99.90;;;;;;5054039;28;20693;-53
2022/08/06 15:35:55;;;;;;;12.40;11.40;;;21.80;99.90;;;;;;5054195;28;20210;-53
2022/08/06 15:38:22;;;;;;;12.53;11.53;;;21.70;99.90;;;;;;5054140;28;20662;-53
2022/08/06 15:40:49;;;;;;;12.33;11.23;;;21.70;99.90;;;;;;5051989;28;20202;-53
2022/08/06 15:43:17;;;;;;;13.23;12.17;;;21.70;99.90;;;;;;5051916;28;20336;-53
2022/08/06 15:45:44;;;;;;;13.90;12.70;;;21.60;99.90;;;;;;5051381;28;20659;-53
2022/08/06 15:48:12;;;;;;;14.70;13.23;;;21.60;99.90;;;;;;5053905;28;20202;-53
2022/08/06 15:50:43;;;;;;;13.10;12.00;;;21.50;99.90;;;;;;5051691;28;20202;-53
2022/08/06 15:53:11;;;;;;;13.47;12.30;;;21.50;99.90;;;;;;5050633;28;20284;-53
2022/08/06 15:55:38;;;;;;;14.63;13.23;;;21.60;99.90;;;;;;5053854;28;20202;-53
2022/08/06 15:58:05;;;;;;;12.87;11.90;;;21.50;99.90;;;;;;5053432;28;20198;-52
2022/08/06 16:00:32;;;;;;;14.97;13.50;;;21.50;99.90;;;;;;5049806;28;20264;-53
2022/08/06 16:02:59;;;;;;;14.43;13.17;;;21.50;99.90;;;;;;5049440;28;20698;-52
2022/08/06 16:05:28;;;;;;;12.30;11.40;;;21.50;99.90;;;;;;5051411;28;20282;-57
2022/08/06 16:07:59;;;;;;;15.87;14.20;;;21.40;99.90;;;;;;5053082;28;20622;-52
2022/08/06 16:10:26;;;;;;;14.43;13.33;;;21.30;99.90;;;;;;5051398;28;20186;-52
2022/08/06 16:12:54;;;;;;;15.27;14.03;;;21.30;99.90;;;;;;5050268;28;20224;-53
2022/08/06 16:15:21;;;;;;;13.93;12.80;;;21.30;99.90;;;;;;5057801;28;20209;-52
2022/08/06 16:17:49;;;;;;;14.70;13.40;;;21.30;99.90;;;;;;5053191;28;20236;-53
2022/08/06 16:20:18;;;;;;;15.67;14.10;;;21.30;99.90;;;;;;5053632;28;20213;-53
2022/08/06 16:22:47;;;;;;;14.20;12.90;;;21.30;99.90;;;;;;5055142;28;20245;-53
2022/08/06 16:25:16;;;;;;;16.20;14.83;;;21.30;99.90;;;;;;5048920;28;20218;-53
2022/08/06 16:27:43;;;;;;;14.73;13.53;;;21.20;99.90;;;;;;5053305;28;20200;-53
2022/08/06 16:30:11;;;;;;;16.27;14.87;;;21.30;99.90;;;;;;5053006;28;20191;-53
2022/08/06 16:32:38;;;;;;;15.37;13.93;;;21.30;99.90;;;;;;5061556;28;20213;-53
2022/08/06 16:35:06;;;;;;;15.70;14.27;;;21.30;99.90;;;;;;5052894;28;20321;-53
2022/08/06 16:37:33;;;;;;;14.37;13.17;;;21.30;99.90;;;;;;5052829;28;20213;-53
2022/08/06 16:40:01;;;;;;;14.33;13.13;;;21.30;99.90;;;;;;5050790;28;20702;-53
2022/08/06 16:42:28;;;;;;;14.03;12.93;;;21.20;99.90;;;;;;5044456;28;20203;-54
2022/08/06 16:44:55;;;;;;;13.63;12.57;;;21.20;99.90;;;;;;5050501;28;20332;-53
2022/08/06 16:47:23;;;;;;;13.70;12.67;;;21.20;99.90;;;;;;5046599;28;20256;-53
2022/08/06 16:49:50;;;;;;;13.70;12.60;;;21.20;99.90;;;;;;5080823;28;20205;-53
2022/08/06 16:52:17;;;;;;;14.40;13.20;;;21.20;99.90;;;;;;5049710;28;20193;-52
2022/08/06 16:54:44;;;;;;;14.00;12.90;;;21.20;99.90;;;;;;5050347;28;20225;-53
2022/08/06 16:57:13;;;;;;;13.67;12.57;;;21.30;99.90;;;;;;5048944;28;20198;-53
2022/08/06 16:59:40;;;;;;;14.40;13.17;;;21.20;99.90;;;;;;5042293;28;20226;-53
2022/08/06 17:04:52;;;;;;;15.00;13.60;;;21.20;99.90;;;;;;5049706;28;20239;-53
2022/08/06 17:07:19;;;;;;;14.23;13.13;;;21.20;99.90;;;;;;5050351;28;20209;-53
2022/08/06 17:09:46;;;;;;;11.70;10.90;;;21.20;99.90;;;;;;5040454;28;20236;-53
2022/08/06 17:12:15;;;;;;;12.93;11.93;;;21.20;99.90;;;;;;5051999;28;20252;-53
2022/08/06 17:14:42;;;;;;;13.00;12.00;;;21.20;99.90;;;;;;5048808;28;20247;-52
2022/08/06 17:17:09;;;;;;;13.10;12.10;;;21.10;99.90;;;;;;5050437;28;20206;-53
2022/08/06 17:19:36;;;;;;;10.03;9.33;;;21.10;99.90;;;;;;5051171;28;20268;-53
2022/08/06 17:22:03;;;;;;;12.80;11.80;;;21.10;99.90;;;;;;5038876;28;20264;-53
2022/08/06 17:24:32;;;;;;;11.37;10.47;;;21.00;99.90;;;;;;5046683;28;20222;-53
2022/08/06 17:26:59;;;;;;;11.30;10.40;;;21.10;99.90;;;;;;5051043;28;20201;-53
2022/08/06 17:29:27;;;;;;;12.40;11.23;;;21.20;99.90;;;;;;5045754;28;20201;-53
2022/08/06 17:31:55;;;;;;;11.97;10.97;;;21.20;99.90;;;;;;5049516;28;20201;-53
2022/08/06 17:34:22;;;;;;;11.07;10.27;;;21.20;99.90;;;;;;5051698;28;20217;-53
2022/08/06 17:36:49;;;;;;;11.10;10.17;;;21.20;99.90;;;;;;5051630;28;20740;-53
2022/08/06 17:39:16;;;;;;;10.07;9.30;;;21.20;99.90;;;;;;5050892;28;20202;-53
2022/08/06 17:41:43;;;;;;;11.17;10.30;;;21.20;99.90;;;;;;5046943;28;20198;-53
2022/08/06 17:44:11;;;;;;;10.97;10.07;;;21.10;99.90;;;;;;5049921;28;20709;-54
2022/08/06 17:46:39;;;;;;;9.10;8.50;;;21.10;99.90;;;;;;5047176;28;20655;-54
2022/08/06 17:49:06;;;;;;;8.93;8.33;;;21.00;99.90;;;;;;5048382;28;20248;-53
2022/08/06 17:51:33;;;;;;;10.37;9.47;;;20.90;99.90;;;;;;5042677;28;20198;-53
2022/08/06 17:54:01;;;;;;;10.00;9.20;;;20.90;99.90;;;;;;5040339;28;20217;-52
2022/08/06 17:56:28;;;;;;;10.53;9.67;;;21.00;99.90;;;;;;5047425;28;20274;-53
2022/08/06 17:58:55;;;;;;;8.70;8.20;;;21.00;99.90;;;;;;5049270;28;20263;-53
2022/08/06 18:01:22;;;;;;;9.07;8.50;;;20.90;99.90;;;;;;5048381;28;20279;-53
2022/08/06 18:03:50;;;;;;;10.10;9.30;;;20.80;99.90;;;;;;5048282;28;20259;-53
2022/08/06 18:06:18;;;;;;;7.43;7.03;;;20.70;99.90;;;;;;5038594;28;20230;-53
2022/08/06 18:08:45;;;;;;;9.90;9.17;;;20.60;99.90;;;;;;5048450;28;20198;-52
2022/08/06 18:11:12;;;;;;;11.23;10.43;;;20.60;99.90;;;;;;5043551;28;20244;-53
2022/08/06 18:13:39;;;;;;;10.00;9.10;;;20.60;99.90;;;;;;5048063;28;20278;-52
2022/08/06 18:16:06;;;;;;;9.63;8.87;;;20.60;99.90;;;;;;5051311;28;20285;-53
2022/08/06 18:18:33;;;;;;;7.60;7.20;;;20.60;99.90;;;;;;5051876;28;20202;-53
2022/08/06 18:21:02;;;;;;;9.20;8.50;;;20.50;99.90;;;;;;5051097;28;20249;-53
2022/08/06 18:23:29;;;;;;;8.77;7.33;;;20.40;99.90;;;;;;5043763;28;20221;-53
2022/08/06 18:25:56;;;;;;;9.43;8.83;;;20.40;99.90;;;;;;5047960;28;20209;-53
2022/08/06 18:28:23;;;;;;;10.03;9.23;;;20.40;99.90;;;;;;5044315;28;20222;-54
2022/08/06 18:30:54;;;;;;;8.57;8.07;;;20.40;99.90;;;;;;5048173;28;20194;-53
2022/08/06 18:33:21;;;;;;;9.87;9.13;;;20.30;99.90;;;;;;5050764;28;20248;-53
2022/08/06 18:35:48;;;;;;;8.57;8.07;;;20.40;99.90;;;;;;5051477;28;20717;-53
2022/08/06 18:38:16;;;;;;;8.27;7.67;;;20.40;99.90;;;;;;5049659;28;20263;-53
2022/08/06 18:40:43;;;;;;;8.13;7.63;;;20.30;99.90;;;;;;5046759;28;20218;-53
2022/08/06 18:43:10;;;;;;;8.40;7.80;;;20.30;99.90;;;;;;5049021;28;20233;-53
2022/08/06 18:45:38;;;;;;;7.67;7.27;;;20.30;99.90;;;;;;5050045;28;20198;-53
2022/08/06 18:48:06;;;;;;;8.10;7.30;;;20.20;99.90;;;;;;5053085;28;20288;-53
2022/08/06 18:50:33;;;;;;;8.73;8.07;;;20.20;99.90;;;;;;5049618;28;20194;-53
2022/08/06 18:53:00;;;;;;;9.67;8.83;;;20.20;99.90;;;;;;5048802;28;20198;-53
2022/08/06 18:55:29;;;;;;;8.97;8.33;;;20.20;99.90;;;;;;5043798;28;20216;-53
2022/08/06 18:57:57;;;;;;;10.17;9.30;;;20.20;99.90;;;;;;5049050;28;20643;-53
2022/08/06 19:00:25;;;;;;;10.03;9.13;;;20.20;99.90;;;;;;5048998;28;20217;-53
2022/08/06 19:02:56;;;;;;;10.77;9.87;;;20.20;99.90;;;;;;5048915;28;20233;-53
2022/08/06 19:05:23;;;;;;;11.23;10.43;;;20.30;99.90;;;;;;5053042;28;20206;-53
2022/08/06 19:07:50;;;;;;;11.77;10.87;;;20.20;99.90;;;;;;5048560;28;20224;-53
2022/08/06 19:10:23;;;;;;;10.43;9.53;;;20.30;99.90;;;;;;5049874;28;20194;-53
2022/08/06 19:12:51;;;;;;;12.13;11.23;;;20.20;99.90;;;;;;5051782;28;20202;-53
2022/08/06 19:15:18;;;;;;;11.57;10.70;;;20.20;99.90;;;;;;5050355;28;20221;-53
2022/08/06 19:17:45;;;;;;;11.97;11.07;;;20.20;99.90;;;;;;5049332;28;20705;-53
2022/08/06 19:20:16;;;;;;;12.90;12.00;;;20.30;99.90;;;;;;5049095;28;20214;-53
2022/08/06 19:22:43;;;;;;;13.90;12.80;;;20.30;99.90;;;;;;5046494;28;20281;-53
2022/08/06 19:25:10;;;;;;;13.27;12.27;;;20.40;99.90;;;;;;5033105;28;20276;-53
2022/08/06 19:27:38;;;;;;;14.73;13.63;;;20.30;99.90;;;;;;5050286;28;20202;-53
2022/08/06 19:30:07;;;;;;;14.67;13.40;;;20.40;99.90;;;;;;5047716;28;20194;-53